sensor_id;sensor_type;location;lat;lon;timestamp;pressure;altitude;pressure_sealevel;temperature;humidity
10806;BME280;5455;53.224;6.000;2024-02-15T00:02:23;101455.19;;;10.77;100.00
10806;BME280;5455;53.224;6.000;2024-02-15T00:04:50;101441.72;;;10.76;100.00
10806;BME280;5455;53.224;6.000;2024-02-15T00:07:18;101449.66;;;10.77;100.00
10806;BME280;5455;53.224;6.000;2024-02-15T00:09:49;101446.09;;;10.77;100.00
10806;BME280;5455;53.224;6.000;2024-02-15T00:12:16;101432.31;;;10.77;100.00
10806;BME280;5455;53.224;6.000;2024-02-15T00:14:43;101439.78;;;10.76;100.00
10806;BME280;5455;53.224;6.000;2024-02-15T00:17:11;101436.22;;;10.76;100.00
10806;BME280;5455;53.224;6.000;2024-02-15T00:19:39;101443.69;;;10.75;100.00
10806;BME280;5455;53.224;6.000;2024-02-15T00:22:09;101448.84;;;10.77;100.00
10806;BME280;5455;53.224;6.000;2024-02-15T00:24:37;101444.16;;;10.77;100.00
10806;BME280;5455;53.224;6.000;2024-02-15T00:27:09;101454.81;;;10.79;100.00
10806;BME280;5455;53.224;6.000;2024-02-15T00:29:38;101454.50;;;10.80;100.00
10806;BME280;5455;53.224;6.000;2024-02-15T00:32:07;101460.00;;;10.80;100.00
10806;BME280;5455;53.224;6.000;2024-02-15T00:34:35;101457.69;;;10.82;100.00
10806;BME280;5455;53.224;6.000;2024-02-15T00:37:03;101457.25;;;10.80;100.00
10806;BME280;5455;53.224;6.000;2024-02-15T00:39:31;101453.69;;;10.80;100.00
10806;BME280;5455;53.224;6.000;2024-02-15T00:41:59;101455.63;;;10.79;100.00
10806;BME280;5455;53.224;6.000;2024-02-15T00:44:29;101449.31;;;10.79;100.00
10806;BME280;5455;53.224;6.000;2024-02-15T00:46:56;101443.78;;;10.79;100.00
10806;BME280;5455;53.224;6.000;2024-02-15T00:49:23;101450.47;;;10.78;100.00
10806;BME280;5455;53.224;6.000;2024-02-15T00:51:50;101446.09;;;10.77;100.00
10806;BME280;5455;53.224;6.000;2024-02-15T00:54:17;101456.00;;;10.78;100.00
10806;BME280;5455;53.224;6.000;2024-02-15T00:56:44;101446.91;;;10.77;100.00
10806;BME280;5455;53.224;6.000;2024-02-15T00:59:11;101449.66;;;10.77;100.00
10806;BME280;5455;53.224;6.000;2024-02-15T01:01:38;101457.94;;;10.77;100.00
10806;BME280;5455;53.224;6.000;2024-02-15T01:04:05;101451.28;;;10.78;100.00
10806;BME280;5455;53.224;6.000;2024-02-15T01:06:32;101449.31;;;10.79;100.00
10806;BME280;5455;53.224;6.000;2024-02-15T01:09:00;101447.16;;;10.84;100.00
10806;BME280;5455;53.224;6.000;2024-02-15T01:11:31;101451.28;;;10.90;100.00
10806;BME280;5455;53.224;6.000;2024-02-15T01:14:02;101449.78;;;10.93;100.00
10806;BME280;5455;53.224;6.000;2024-02-15T01:16:29;101445.06;;;10.93;100.00
10806;BME280;5455;53.224;6.000;2024-02-15T01:18:57;101443.91;;;10.94;100.00
10806;BME280;5455;53.224;6.000;2024-02-15T01:21:24;101440.31;;;10.94;100.00
10806;BME280;5455;53.224;6.000;2024-02-15T01:23:51;101436.44;;;10.95;100.00
10806;BME280;5455;53.224;6.000;2024-02-15T01:26:20;101442.75;;;10.95;100.00
10806;BME280;5455;53.224;6.000;2024-02-15T01:28:47;101443.00;;;10.90;100.00
10806;BME280;5455;53.224;6.000;2024-02-15T01:31:15;101441.13;;;10.94;100.00
10806;BME280;5455;53.224;6.000;2024-02-15T01:33:44;101438.38;;;10.94;100.00
10806;BME280;5455;53.224;6.000;2024-02-15T01:36:16;101447.47;;;10.95;100.00
10806;BME280;5455;53.224;6.000;2024-02-15T01:38:43;101449.31;;;10.91;100.00
10806;BME280;5455;53.224;6.000;2024-02-15T01:41:13;101446.75;;;11.10;100.00
10806;BME280;5455;53.224;6.000;2024-02-15T01:43:44;101440.09;;;11.11;100.00
10806;BME280;5455;53.224;6.000;2024-02-15T01:46:15;101446.50;;;11.15;100.00
10806;BME280;5455;53.224;6.000;2024-02-15T01:48:42;101448.13;;;11.16;100.00
10806;BME280;5455;53.224;6.000;2024-02-15T01:51:12;101452.03;;;11.15;100.00
10806;BME280;5455;53.224;6.000;2024-02-15T01:53:42;101465.50;;;11.17;100.00
10806;BME280;5455;53.224;6.000;2024-02-15T01:56:12;101461.56;;;11.18;100.00
10806;BME280;5455;53.224;6.000;2024-02-15T01:58:41;101463.88;;;11.16;100.00
10806;BME280;5455;53.224;6.000;2024-02-15T02:01:10;101448.94;;;11.17;100.00
10806;BME280;5455;53.224;6.000;2024-02-15T02:03:39;101451.22;;;11.15;100.00
10806;BME280;5455;53.224;6.000;2024-02-15T02:06:06;101462.16;;;11.11;100.00
10806;BME280;5455;53.224;6.000;2024-02-15T02:08:34;101462.16;;;11.11;100.00
10806;BME280;5455;53.224;6.000;2024-02-15T02:11:01;101458.75;;;11.02;100.00
10806;BME280;5455;53.224;6.000;2024-02-15T02:13:28;101441.94;;;10.95;100.00
10806;BME280;5455;53.224;6.000;2024-02-15T02:15:57;101454.13;;;10.94;100.00
10806;BME280;5455;53.224;6.000;2024-02-15T02:18:27;101448.97;;;10.92;100.00
10806;BME280;5455;53.224;6.000;2024-02-15T02:20:54;101452.06;;;10.91;100.00
10806;BME280;5455;53.224;6.000;2024-02-15T02:23:25;101453.78;;;10.95;100.00
10806;BME280;5455;53.224;6.000;2024-02-15T02:25:55;101449.41;;;10.94;100.00
10806;BME280;5455;53.224;6.000;2024-02-15T02:28:22;101457.38;;;10.96;100.00
10806;BME280;5455;53.224;6.000;2024-02-15T02:30:49;101447.81;;;10.93;100.00
10806;BME280;5455;53.224;6.000;2024-02-15T02:33:17;101448.59;;;10.94;100.00
10806;BME280;5455;53.224;6.000;2024-02-15T02:35:50;101455.50;;;11.00;100.00
10806;BME280;5455;53.224;6.000;2024-02-15T02:38:17;101454.69;;;10.99;100.00
10806;BME280;5455;53.224;6.000;2024-02-15T02:40:44;101450.66;;;10.97;100.00
10806;BME280;5455;53.224;6.000;2024-02-15T02:43:11;101443.44;;;10.92;100.00
10806;BME280;5455;53.224;6.000;2024-02-15T02:45:39;101457.00;;;10.97;100.00
10806;BME280;5455;53.224;6.000;2024-02-15T02:48:06;101456.66;;;10.99;100.00
10806;BME280;5455;53.224;6.000;2024-02-15T02:50:34;101456.31;;;11.00;100.00
10806;BME280;5455;53.224;6.000;2024-02-15T02:53:02;101453.22;;;11.02;100.00
10806;BME280;5455;53.224;6.000;2024-02-15T02:55:29;101451.47;;;10.97;100.00
10806;BME280;5455;53.224;6.000;2024-02-15T02:57:56;101451.47;;;10.97;100.00
10806;BME280;5455;53.224;6.000;2024-02-15T03:00:23;101444.00;;;10.98;100.00
10806;BME280;5455;53.224;6.000;2024-02-15T03:02:50;101450.66;;;10.97;100.00
10806;BME280;5455;53.224;6.000;2024-02-15T03:05:17;101442.75;;;10.95;100.00
10806;BME280;5455;53.224;6.000;2024-02-15T03:07:48;101452.66;;;10.96;100.00
10806;BME280;5455;53.224;6.000;2024-02-15T03:10:18;101439.63;;;10.97;100.00
10806;BME280;5455;53.224;6.000;2024-02-15T03:12:45;101442.41;;;10.97;100.00
10806;BME280;5455;53.224;6.000;2024-02-15T03:15:16;101441.63;;;10.96;100.00
10806;BME280;5455;53.224;6.000;2024-02-15T03:17:46;101442.06;;;10.98;100.00
10806;BME280;5455;53.224;6.000;2024-02-15T03:20:14;101443.66;;;10.99;100.00
10806;BME280;5455;53.224;6.000;2024-02-15T03:22:58;101438.13;;;10.99;100.00
10806;BME280;5455;53.224;6.000;2024-02-15T03:25:27;101435.38;;;10.99;100.00
10806;BME280;5455;53.224;6.000;2024-02-15T03:27:58;101435.97;;;11.05;100.00
10806;BME280;5455;53.224;6.000;2024-02-15T03:30:26;101438.03;;;11.08;100.00
10806;BME280;5455;53.224;6.000;2024-02-15T03:32:54;101438.47;;;11.10;100.00
10806;BME280;5455;53.224;6.000;2024-02-15T03:35:24;101439.97;;;11.07;100.00
10806;BME280;5455;53.224;6.000;2024-02-15T03:37:52;101439.06;;;11.03;100.00
10806;BME280;5455;53.224;6.000;2024-02-15T03:40:20;101435.03;;;11.01;100.00
10806;BME280;5455;53.224;6.000;2024-02-15T03:42:48;101431.47;;;11.00;100.00
10806;BME280;5455;53.224;6.000;2024-02-15T03:45:17;101436.53;;;10.98;100.00
10806;BME280;5455;53.224;6.000;2024-02-15T03:47:44;101427.09;;;10.99;100.00
10806;BME280;5455;53.224;6.000;2024-02-15T03:50:13;101427.09;;;10.99;100.00
10806;BME280;5455;53.224;6.000;2024-02-15T03:52:43;101420.31;;;10.97;100.00
10806;BME280;5455;53.224;6.000;2024-02-15T03:55:10;101430.56;;;10.96;100.00
10806;BME280;5455;53.224;6.000;2024-02-15T03:57:38;101425.41;;;10.95;100.00
10806;BME280;5455;53.224;6.000;2024-02-15T04:00:10;101426.66;;;10.97;100.00
10806;BME280;5455;53.224;6.000;2024-02-15T04:02:38;101423.19;;;11.00;100.00
10806;BME280;5455;53.224;6.000;2024-02-15T04:05:10;101426.66;;;10.97;100.00
10806;BME280;5455;53.224;6.000;2024-02-15T04:07:40;101421.13;;;10.97;100.00
10806;BME280;5455;53.224;6.000;2024-02-15T04:10:07;101422.63;;;10.95;100.00
10806;BME280;5455;53.224;6.000;2024-02-15T04:12:36;101423.00;;;10.93;100.00
10806;BME280;5455;53.224;6.000;2024-02-15T04:15:04;101421.38;;;10.92;100.00
10806;BME280;5455;53.224;6.000;2024-02-15T04:17:40;101423.78;;;10.94;100.00
10806;BME280;5455;53.224;6.000;2024-02-15T04:20:09;101434.03;;;10.93;100.00
10806;BME280;5455;53.224;6.000;2024-02-15T04:22:36;101424.25;;;10.96;100.00
10806;BME280;5455;53.224;6.000;2024-02-15T04:25:10;101427.47;;;10.98;100.00
10806;BME280;5455;53.224;6.000;2024-02-15T04:27:38;101427.22;;;11.03;100.00
10806;BME280;5455;53.224;6.000;2024-02-15T04:30:06;101424.81;;;11.01;100.00
10806;BME280;5455;53.224;6.000;2024-02-15T04:32:35;101424.44;;;11.03;100.00
10806;BME280;5455;53.224;6.000;2024-02-15T04:35:04;101419.84;;;11.07;100.00
10806;BME280;5455;53.224;6.000;2024-02-15T04:37:35;101417.53;;;11.09;100.00
10806;BME280;5455;53.224;6.000;2024-02-15T04:40:04;101422.38;;;11.12;100.00
10806;BME280;5455;53.224;6.000;2024-02-15T04:42:37;101420.53;;;11.16;100.00
10806;BME280;5455;53.224;6.000;2024-02-15T04:45:08;101412.69;;;11.18;100.00
10806;BME280;5455;53.224;6.000;2024-02-15T04:47:37;101396.69;;;11.24;100.00
10806;BME280;5455;53.224;6.000;2024-02-15T04:50:05;101384.94;;;11.27;100.00
10806;BME280;5455;53.224;6.000;2024-02-15T04:52:33;101370.44;;;11.30;100.00
10806;BME280;5455;53.224;6.000;2024-02-15T04:55:01;101377.22;;;11.32;100.00
10806;BME280;5455;53.224;6.000;2024-02-15T04:57:31;101375.72;;;11.35;100.00
10806;BME280;5455;53.224;6.000;2024-02-15T05:00:01;101366.38;;;11.39;100.00
10806;BME280;5455;53.224;6.000;2024-02-15T05:02:35;101351.06;;;11.42;100.00
10806;BME280;5455;53.224;6.000;2024-02-15T05:05:07;101350.28;;;11.41;100.00
10806;BME280;5455;53.224;6.000;2024-02-15T05:07:35;101350.34;;;11.45;100.00
10806;BME280;5455;53.224;6.000;2024-02-15T05:10:07;101355.16;;;11.48;100.00
10806;BME280;5455;53.224;6.000;2024-02-15T05:12:37;101349.31;;;11.49;100.00
10806;BME280;5455;53.224;6.000;2024-02-15T05:15:05;101355.38;;;11.55;100.00
10806;BME280;5455;53.224;6.000;2024-02-15T05:17:40;101356.53;;;11.54;100.00
10806;BME280;5455;53.224;6.000;2024-02-15T05:20:11;101360.91;;;11.55;100.00
10806;BME280;5455;53.224;6.000;2024-02-15T05:22:39;101354.94;;;11.53;100.00
10806;BME280;5455;53.224;6.000;2024-02-15T05:25:10;101362.84;;;11.54;100.00
10806;BME280;5455;53.224;6.000;2024-02-15T05:27:39;101365.28;;;11.56;100.00
10806;BME280;5455;53.224;6.000;2024-02-15T05:30:06;101368.03;;;11.56;100.00
10806;BME280;5455;53.224;6.000;2024-02-15T05:32:34;101361.34;;;11.57;100.00
10806;BME280;5455;53.224;6.000;2024-02-15T05:35:09;101358.56;;;11.57;100.00
10806;BME280;5455;53.224;6.000;2024-02-15T05:37:38;101359.03;;;11.59;100.00
10806;BME280;5455;53.224;6.000;2024-02-15T05:40:06;101353.97;;;11.61;100.00
10806;BME280;5455;53.224;6.000;2024-02-15T05:42:34;101364.31;;;11.64;100.00
10806;BME280;5455;53.224;6.000;2024-02-15T05:47:53;101359.69;;;11.68;100.00
10806;BME280;5455;53.224;6.000;2024-02-15T05:50:22;101365.22;;;11.68;100.00
10806;BME280;5455;53.224;6.000;2024-02-15T05:52:51;101367.63;;;11.70;100.00
10806;BME280;5455;53.224;6.000;2024-02-15T05:55:22;101357.41;;;11.70;100.00
10806;BME280;5455;53.224;6.000;2024-02-15T05:57:49;101363.72;;;11.71;100.00
10806;BME280;5455;53.224;6.000;2024-02-15T06:00:16;101357.84;;;11.72;100.00
10806;BME280;5455;53.224;6.000;2024-02-15T06:02:49;101362.91;;;11.70;100.00
10806;BME280;5455;53.224;6.000;2024-02-15T06:05:18;101365.31;;;11.72;100.00
10806;BME280;5455;53.224;6.000;2024-02-15T06:07:45;101359.00;;;11.71;100.00
10806;BME280;5455;53.224;6.000;2024-02-15T06:10:14;101359.00;;;11.71;100.00
10806;BME280;5455;53.224;6.000;2024-02-15T06:12:42;101357.41;;;11.70;100.00
10806;BME280;5455;53.224;6.000;2024-02-15T06:15:10;101345.53;;;11.70;100.00
10806;BME280;5455;53.224;6.000;2024-02-15T06:17:55;101358.50;;;11.69;100.00
10806;BME280;5455;53.224;6.000;2024-02-15T06:20:24;101350.94;;;11.66;100.00
10806;BME280;5455;53.224;6.000;2024-02-15T06:22:53;101356.47;;;11.66;100.00
10806;BME280;5455;53.224;6.000;2024-02-15T06:25:20;101352.44;;;11.63;100.00
10806;BME280;5455;53.224;6.000;2024-02-15T06:27:49;101351.31;;;11.65;100.00
10806;BME280;5455;53.224;6.000;2024-02-15T06:30:18;101351.63;;;11.63;100.00
10806;BME280;5455;53.224;6.000;2024-02-15T06:33:04;101350.50;;;11.64;100.00
10806;BME280;5455;53.224;6.000;2024-02-15T06:35:49;101351.63;;;11.63;100.00
10806;BME280;5455;53.224;6.000;2024-02-15T06:38:35;101344.06;;;11.60;100.00
10806;BME280;5455;53.224;6.000;2024-02-15T06:41:21;101345.25;;;11.59;100.00
10806;BME280;5455;53.224;6.000;2024-02-15T06:43:51;101349.16;;;11.58;100.00
10806;BME280;5455;53.224;6.000;2024-02-15T06:46:18;101350.50;;;11.64;100.00
10806;BME280;5455;53.224;6.000;2024-02-15T06:48:46;101344.06;;;11.60;100.00
10806;BME280;5455;53.224;6.000;2024-02-15T06:51:13;101349.94;;;11.58;100.00
10806;BME280;5455;53.224;6.000;2024-02-15T06:53:43;101348.00;;;11.59;100.00
10806;BME280;5455;53.224;6.000;2024-02-15T06:56:10;101344.53;;;11.62;100.00
10806;BME280;5455;53.224;6.000;2024-02-15T06:58:39;101341.28;;;11.60;100.00
10806;BME280;5455;53.224;6.000;2024-02-15T07:01:07;101344.88;;;11.60;100.00
10806;BME280;5455;53.224;6.000;2024-02-15T07:03:35;101344.53;;;11.62;100.00
10806;BME280;5455;53.224;6.000;2024-02-15T07:06:02;101350.50;;;11.64;100.00
10806;BME280;5455;53.224;6.000;2024-02-15T07:08:31;101350.13;;;11.66;100.00
10806;BME280;5455;53.224;6.000;2024-02-15T07:10:59;101356.47;;;11.66;100.00
10806;BME280;5455;53.224;6.000;2024-02-15T07:13:25;101354.50;;;11.67;100.00
10806;BME280;5455;53.224;6.000;2024-02-15T07:15:53;101341.50;;;11.67;100.00
10806;BME280;5455;53.224;6.000;2024-02-15T07:18:20;101354.16;;;11.68;100.00
10806;BME280;5455;53.224;6.000;2024-02-15T07:20:55;101353.34;;;11.68;100.00
10806;BME280;5455;53.224;6.000;2024-02-15T07:23:23;101343.13;;;11.68;100.00
10806;BME280;5455;53.224;6.000;2024-02-15T07:25:52;101340.34;;;11.68;100.00
10806;BME280;5455;53.224;6.000;2024-02-15T07:28:21;101339.53;;;11.68;100.00
10806;BME280;5455;53.224;6.000;2024-02-15T07:30:48;101338.28;;;11.65;100.00
10806;BME280;5455;53.224;6.000;2024-02-15T07:33:17;101335.97;;;11.67;100.00
10806;BME280;5455;53.224;6.000;2024-02-15T07:35:45;101338.72;;;11.67;100.00
10806;BME280;5455;53.224;6.000;2024-02-15T07:38:12;101339.06;;;11.66;100.00
10806;BME280;5455;53.224;6.000;2024-02-15T07:40:40;101333.22;;;11.67;100.00
10806;BME280;5455;53.224;6.000;2024-02-15T07:43:08;101336.78;;;11.68;100.00
10806;BME280;5455;53.224;6.000;2024-02-15T07:45:34;101343.88;;;11.69;100.00
10806;BME280;5455;53.224;6.000;2024-02-15T07:48:04;101345.97;;;11.72;100.00
10806;BME280;5455;53.224;6.000;2024-02-15T07:50:32;101355.06;;;11.72;100.00
10806;BME280;5455;53.224;6.000;2024-02-15T07:52:59;101348.41;;;11.73;100.00
10806;BME280;5455;53.224;6.000;2024-02-15T07:55:26;101359.88;;;11.75;100.00
10806;BME280;5455;53.224;6.000;2024-02-15T07:57:53;101355.16;;;11.76;100.00
10806;BME280;5455;53.224;6.000;2024-02-15T08:00:20;101355.59;;;11.78;100.00
10806;BME280;5455;53.224;6.000;2024-02-15T08:02:47;101355.59;;;11.78;100.00
10806;BME280;5455;53.224;6.000;2024-02-15T08:05:14;101360.69;;;11.76;100.00
10806;BME280;5455;53.224;6.000;2024-02-15T08:07:43;101353.66;;;11.78;100.00
10806;BME280;5455;53.224;6.000;2024-02-15T08:10:11;101352.84;;;11.78;100.00
10806;BME280;5455;53.224;6.000;2024-02-15T08:12:45;101354.13;;;11.80;100.00
10806;BME280;5455;53.224;6.000;2024-02-15T08:15:13;101353.41;;;11.83;100.00
10806;BME280;5455;53.224;6.000;2024-02-15T08:17:41;101356.19;;;11.83;100.00
10806;BME280;5455;53.224;6.000;2024-02-15T08:20:12;101353.03;;;11.85;100.00
10806;BME280;5455;53.224;6.000;2024-02-15T08:22:41;101358.22;;;11.86;100.00
10806;BME280;5455;53.224;6.000;2024-02-15T08:25:12;101361.00;;;11.86;100.00
10806;BME280;5455;53.224;6.000;2024-02-15T08:27:41;101361.00;;;11.86;100.00
10806;BME280;5455;53.224;6.000;2024-02-15T08:30:11;101354.66;;;11.86;100.00
10806;BME280;5455;53.224;6.000;2024-02-15T08:32:42;101354.28;;;11.87;100.00
10806;BME280;5455;53.224;6.000;2024-02-15T08:35:11;101357.53;;;11.89;100.00
10806;BME280;5455;53.224;6.000;2024-02-15T08:37:40;101364.63;;;11.90;100.00
10806;BME280;5455;53.224;6.000;2024-02-15T08:40:09;101355.53;;;11.90;100.00
10806;BME280;5455;53.224;6.000;2024-02-15T08:42:41;101352.44;;;11.91;100.00
10806;BME280;5455;53.224;6.000;2024-02-15T08:45:09;101354.47;;;11.94;100.00
10806;BME280;5455;53.224;6.000;2024-02-15T08:47:37;101358.50;;;11.97;100.00
10806;BME280;5455;53.224;6.000;2024-02-15T08:50:05;101350.63;;;11.99;100.00
10806;BME280;5455;53.224;6.000;2024-02-15T08:52:32;101350.28;;;12.00;100.00
10806;BME280;5455;53.224;6.000;2024-02-15T08:54:59;101353.50;;;12.02;100.00
10806;BME280;5455;53.224;6.000;2024-02-15T08:57:27;101350.38;;;12.04;100.00
10806;BME280;5455;53.224;6.000;2024-02-15T08:59:55;101345.66;;;12.04;100.00
10806;BME280;5455;53.224;6.000;2024-02-15T09:02:22;101339.06;;;12.09;100.00
10806;BME280;5455;53.224;6.000;2024-02-15T09:04:49;101346.72;;;12.15;100.00
10806;BME280;5455;53.224;6.000;2024-02-15T09:07:16;101338.88;;;12.18;100.00
10806;BME280;5455;53.224;6.000;2024-02-15T09:09:43;101333.44;;;12.21;100.00
10806;BME280;5455;53.224;6.000;2024-02-15T09:12:10;101332.00;;;12.27;100.00
10806;BME280;5455;53.224;6.000;2024-02-15T09:14:38;101309.97;;;12.31;100.00
10806;BME280;5455;53.224;6.000;2024-02-15T09:17:05;101310.50;;;12.36;100.00
10806;BME280;5455;53.224;6.000;2024-02-15T09:19:35;101308.63;;;12.40;100.00
10806;BME280;5455;53.224;6.000;2024-02-15T09:22:04;101317.44;;;12.46;100.00
10806;BME280;5455;53.224;6.000;2024-02-15T09:24:33;101311.19;;;12.49;100.00
10806;BME280;5455;53.224;6.000;2024-02-15T09:27:01;101311.31;;;12.56;100.00
10806;BME280;5455;53.224;6.000;2024-02-15T09:29:29;101311.78;;;12.58;100.00
10806;BME280;5455;53.224;6.000;2024-02-15T09:32:02;101313.38;;;12.59;100.00
10806;BME280;5455;53.224;6.000;2024-02-15T09:34:30;101308.72;;;12.63;100.00
10806;BME280;5455;53.224;6.000;2024-02-15T09:36:57;101312.09;;;12.72;100.00
10806;BME280;5455;53.224;6.000;2024-02-15T09:39:24;101315.66;;;12.73;100.00
10806;BME280;5455;53.224;6.000;2024-02-15T09:41:52;101311.75;;;12.74;100.00
10806;BME280;5455;53.224;6.000;2024-02-15T09:44:26;101326.09;;;12.79;100.00
10806;BME280;5455;53.224;6.000;2024-02-15T09:47:03;101318.59;;;12.80;100.00
10806;BME280;5455;53.224;6.000;2024-02-15T09:49:38;101318.22;;;12.81;100.00
10806;BME280;5455;53.224;6.000;2024-02-15T09:52:08;101318.84;;;12.75;100.00
10806;BME280;5455;53.224;6.000;2024-02-15T09:54:39;101326.00;;;12.76;100.00
10806;BME280;5455;53.224;6.000;2024-02-15T09:57:10;101327.63;;;12.77;100.00
10806;BME280;5455;53.224;6.000;2024-02-15T09:59:38;101329.94;;;12.75;100.00
10806;BME280;5455;53.224;6.000;2024-02-15T10:02:07;101326.81;;;12.76;100.00
10806;BME280;5455;53.224;6.000;2024-02-15T10:04:40;101318.78;;;12.71;100.00
10806;BME280;5455;53.224;6.000;2024-02-15T10:07:08;101326.72;;;12.73;100.00
10806;BME280;5455;53.224;6.000;2024-02-15T10:09:36;101316.56;;;12.77;100.00
10806;BME280;5455;53.224;6.000;2024-02-15T10:12:03;101312.19;;;12.76;100.00
10806;BME280;5455;53.224;6.000;2024-02-15T10:14:35;101317.28;;;12.74;100.00
10806;BME280;5455;53.224;6.000;2024-02-15T10:17:06;101314.13;;;12.75;100.00
10806;BME280;5455;53.224;6.000;2024-02-15T10:19:38;101318.84;;;12.75;100.00
10806;BME280;5455;53.224;6.000;2024-02-15T10:22:07;101317.78;;;12.79;100.00
10806;BME280;5455;53.224;6.000;2024-02-15T10:24:35;101317.78;;;12.79;100.00
10806;BME280;5455;53.224;6.000;2024-02-15T10:27:03;101322.94;;;12.81;100.00
10806;BME280;5455;53.224;6.000;2024-02-15T10:29:31;101321.28;;;12.76;100.00
10806;BME280;5455;53.224;6.000;2024-02-15T10:31:59;101322.00;;;12.73;100.00
10806;BME280;5455;53.224;6.000;2024-02-15T10:34:27;101329.94;;;12.75;100.00
10806;BME280;5455;53.224;6.000;2024-02-15T10:36:55;101333.16;;;12.77;100.00
10806;BME280;5455;53.224;6.000;2024-02-15T10:39:25;101327.63;;;12.77;100.00
10806;BME280;5455;53.224;6.000;2024-02-15T10:41:53;101323.66;;;12.78;100.00
10806;BME280;5455;53.224;6.000;2024-02-15T10:44:22;101333.16;;;12.77;100.00
10806;BME280;5455;53.224;6.000;2024-02-15T10:46:51;101333.88;;;12.74;100.00
10806;BME280;5455;53.224;6.000;2024-02-15T10:49:23;101340.66;;;12.76;100.00
10806;BME280;5455;53.224;6.000;2024-02-15T10:51:51;101334.38;;;12.79;100.00
10806;BME280;5455;53.224;6.000;2024-02-15T10:54:47;101334.66;;;12.74;100.00
10806;BME280;5455;53.224;6.000;2024-02-15T10:57:20;101329.84;;;12.71;100.00
10806;BME280;5455;53.224;6.000;2024-02-15T10:59:57;101324.31;;;12.71;100.00
10806;BME280;5455;53.224;6.000;2024-02-15T11:02:29;101327.88;;;12.71;100.00
10806;BME280;5455;53.224;6.000;2024-02-15T11:05:05;101328.59;;;12.68;100.00
10806;BME280;5455;53.224;6.000;2024-02-15T11:07:37;101326.13;;;12.63;100.00
10806;BME280;5455;53.224;6.000;2024-02-15T11:10:06;101322.22;;;12.64;100.00
10806;BME280;5455;53.224;6.000;2024-02-15T11:12:35;101329.78;;;12.67;100.00
10806;BME280;5455;53.224;6.000;2024-02-15T11:15:03;101329.31;;;12.65;100.00
10806;BME280;5455;53.224;6.000;2024-02-15T11:20:04;101321.84;;;12.66;100.00
10806;BME280;5455;53.224;6.000;2024-02-15T11:22:36;101315.88;;;12.64;100.00
10806;BME280;5455;53.224;6.000;2024-02-15T11:25:04;101310.78;;;12.66;100.00
10806;BME280;5455;53.224;6.000;2024-02-15T11:27:43;101315.41;;;12.62;100.00
10806;BME280;5455;53.224;6.000;2024-02-15T11:30:10;101304.44;;;12.65;100.00
10806;BME280;5455;53.224;6.000;2024-02-15T11:35:18;101302.38;;;12.62;100.00
10806;BME280;5455;53.224;6.000;2024-02-15T11:40:25;101309.44;;;12.60;100.00
10806;BME280;5455;53.224;6.000;2024-02-15T11:42:55;101313.44;;;12.62;100.00
10806;BME280;5455;53.224;6.000;2024-02-15T11:45:26;101310.78;;;12.66;100.00
10806;BME280;5455;53.224;6.000;2024-02-15T11:47:59;101299.53;;;12.59;100.00
10806;BME280;5455;53.224;6.000;2024-02-15T11:50:27;101307.84;;;12.59;100.00
10806;BME280;5455;53.224;6.000;2024-02-15T11:53:02;101316.22;;;12.62;100.00
10806;BME280;5455;53.224;6.000;2024-02-15T11:55:34;101304.28;;;12.58;100.00
10806;BME280;5455;53.224;6.000;2024-02-15T11:58:02;101295.53;;;12.56;100.00
10806;BME280;5455;53.224;6.000;2024-02-15T12:00:32;101296.44;;;12.60;100.00
10806;BME280;5455;53.224;6.000;2024-02-15T12:03:19;101296.59;;;12.67;100.00
10806;BME280;5455;53.224;6.000;2024-02-15T12:06:06;101293.75;;;12.64;100.00
10806;BME280;5455;53.224;6.000;2024-02-15T12:08:53;101287.91;;;12.69;100.00
10806;BME280;5455;53.224;6.000;2024-02-15T12:11:40;101292.28;;;12.70;100.00
10806;BME280;5455;53.224;6.000;2024-02-15T12:14:26;101289.06;;;12.68;100.00
10806;BME280;5455;53.224;6.000;2024-02-15T12:17:13;101293.44;;;12.69;100.00
10806;BME280;5455;53.224;6.000;2024-02-15T12:20:02;101295.41;;;12.68;100.00
10806;BME280;5455;53.224;6.000;2024-02-15T12:22:43;101289.06;;;12.68;100.00
10806;BME280;5455;53.224;6.000;2024-02-15T12:25:15;101281.22;;;12.70;100.00
10806;BME280;5455;53.224;6.000;2024-02-15T12:27:44;101275.69;;;12.70;100.00
10806;BME280;5455;53.224;6.000;2024-02-15T12:30:16;101261.94;;;12.74;100.00
10806;BME280;5455;53.224;6.000;2024-02-15T12:32:52;101260.75;;;12.75;100.00
10806;BME280;5455;53.224;6.000;2024-02-15T12:35:21;101271.91;;;12.78;100.00
10806;BME280;5455;53.224;6.000;2024-02-15T12:38:02;101268.69;;;12.76;100.00
10806;BME280;5455;53.224;6.000;2024-02-15T12:40:34;101265.78;;;12.88;100.00
10806;BME280;5455;53.224;6.000;2024-02-15T12:43:04;101267.75;;;12.88;100.00
10806;BME280;5455;53.224;6.000;2024-02-15T12:45:42;101259.81;;;12.86;100.00
10806;BME280;5455;53.224;6.000;2024-02-15T12:48:09;101265.06;;;12.91;100.00
10806;BME280;5455;53.224;6.000;2024-02-15T12:50:38;101264.75;;;12.96;100.00
10806;BME280;5455;53.224;6.000;2024-02-15T12:53:06;101260.53;;;13.02;100.00
10806;BME280;5455;53.224;6.000;2024-02-15T12:55:36;101258.94;;;13.01;100.00
10806;BME280;5455;53.224;6.000;2024-02-15T12:58:05;101256.97;;;13.02;100.00
10806;BME280;5455;53.224;6.000;2024-02-15T13:00:36;101254.56;;;13.00;100.00
10806;BME280;5455;53.224;6.000;2024-02-15T13:03:08;101253.69;;;12.96;100.00
10806;BME280;5455;53.224;6.000;2024-02-15T13:05:38;101252.06;;;12.95;100.00
10806;BME280;5455;53.224;6.000;2024-02-15T13:08:05;101251.28;;;12.95;100.00
10806;BME280;5455;53.224;6.000;2024-02-15T13:10:37;101239.84;;;12.96;100.00
10806;BME280;5455;53.224;6.000;2024-02-15T13:13:06;101234.00;;;13.01;100.00
10806;BME280;5455;53.224;6.000;2024-02-15T13:15:36;101229.94;;;12.95;100.00